Station Historical Data
Daily Summary for December 9, 2017 Units:  English    Metric   Both
« Previous Day
Next Day »
Daily Weekly Monthly Yearly Custom
  High: Low: Average:
Temperature: 34.2 °F 22.4 °F 28.7 °F
Dew Point: 23.6 °F 13.5 °F 17.3 °F
Humidity: 79% 43% 63%
Wind Speed: 9.0mph 0.0mph 2.9mph
Wind Gust: 13.0mph - -
Wind- - SW
Pressure: 29.93 in 29.77 in -
Precipitation: 0.03 in    
Historical Graphs
 
 
Tabular Data for December 9, 2017
Time Temperature Dew Point Pressure Wind Wind Speed Wind Gust Humidity Rainfall Rate (Hourly)
00:05 28.4 °F 16.7 °F 29.92 in South 7.0 mph 12.0 mph 61% 0.00 in
00:10 28.3 °F 16.6 °F 29.92 in South 9.0 mph 10.0 mph 61% 0.00 in
00:15 28.3 °F 16.6 °F 29.92 in South 4.0 mph 9.0 mph 61% 0.00 in
00:20 28.2 °F 16.8 °F 29.92 in SSW 2.0 mph 9.0 mph 62% 0.00 in
00:25 28.1 °F 16.7 °F 29.92 in South 5.0 mph 9.0 mph 62% 0.00 in
00:35 28.1 °F 16.7 °F 29.92 in South 5.0 mph 10.0 mph 62% 0.00 in
00:40 28.0 °F 16.6 °F 29.92 in South 5.0 mph 11.0 mph 62% 0.00 in
00:45 28.0 °F 16.6 °F 29.92 in SSW 5.0 mph 11.0 mph 62% 0.00 in
00:50 28.0 °F 16.6 °F 29.91 in SSW 5.0 mph 9.0 mph 62% 0.00 in
00:55 28.0 °F 17.0 °F 29.91 in South 4.0 mph 8.0 mph 63% 0.00 in
01:00 28.0 °F 17.0 °F 29.92 in SSW 5.0 mph 10.0 mph 63% 0.00 in
01:10 27.8 °F 16.8 °F 29.93 in South 4.0 mph 8.0 mph 63% 0.00 in
01:15 27.8 °F 16.8 °F 29.92 in South 4.0 mph 9.0 mph 63% 0.00 in
01:20 27.8 °F 16.8 °F 29.92 in SSW 4.0 mph 7.0 mph 63% 0.00 in
01:30 27.7 °F 16.7 °F 29.91 in SSW 7.0 mph 10.0 mph 63% 0.00 in
01:40 27.7 °F 16.7 °F 29.91 in SSW 6.0 mph 12.0 mph 63% 0.00 in
01:45 27.7 °F 16.7 °F 29.91 in SSW 6.0 mph 12.0 mph 63% 0.00 in
01:50 27.6 °F 16.6 °F 29.91 in SSW 5.0 mph 10.0 mph 63% 0.00 in
01:55 27.5 °F 16.5 °F 29.91 in SSW 5.0 mph 9.0 mph 63% 0.00 in
02:10 27.2 °F 16.3 °F 29.92 in South 3.0 mph 8.0 mph 63% 0.00 in
02:15 27.1 °F 16.5 °F 29.92 in SW 5.0 mph 7.0 mph 64% 0.00 in
02:20 27.0 °F 16.4 °F 29.92 in South 3.0 mph 9.0 mph 64% 0.00 in
02:25 26.9 °F 16.7 °F 29.92 in SSW 6.0 mph 7.0 mph 65% 0.00 in
02:35 26.9 °F 16.7 °F 29.92 in South 3.0 mph 6.0 mph 65% 0.00 in
02:45 26.7 °F 16.5 °F 29.92 in South 3.0 mph 7.0 mph 65% 0.00 in
02:50 26.7 °F 16.5 °F 29.92 in South 4.0 mph 9.0 mph 65% 0.00 in
02:55 26.7 °F 16.5 °F 29.92 in South 4.0 mph 8.0 mph 65% 0.00 in
03:00 26.6 °F 16.4 °F 29.92 in SSE 2.0 mph 6.0 mph 65% 0.00 in
03:05 26.5 °F 16.7 °F 29.92 in South 7.0 mph 8.0 mph 66% 0.00 in
03:15 26.5 °F 16.7 °F 29.92 in South 5.0 mph 9.0 mph 66% 0.00 in
03:20 26.5 °F 16.7 °F 29.92 in South 4.0 mph 9.0 mph 66% 0.00 in
03:25 26.5 °F 16.7 °F 29.91 in South 4.0 mph 9.0 mph 66% 0.00 in
03:30 26.5 °F 16.7 °F 29.91 in South 6.0 mph 7.0 mph 66% 0.00 in
03:35 26.3 °F 16.5 °F 29.91 in SSW 3.0 mph 7.0 mph 66% 0.00 in
03:40 26.1 °F 16.3 °F 29.91 in SSW 5.0 mph 9.0 mph 66% 0.00 in
03:45 26.0 °F 16.2 °F 29.91 in South 5.0 mph 9.0 mph 66% 0.00 in
03:50 26.0 °F 16.2 °F 29.91 in South 4.0 mph 13.0 mph 66% 0.00 in
03:55 26.0 °F 16.2 °F 29.91 in South 5.0 mph 13.0 mph 66% 0.00 in
04:00 26.0 °F 16.2 °F 29.91 in South 1.0 mph 8.0 mph 66% 0.00 in
04:05 25.9 °F 16.4 °F 29.90 in South 2.0 mph 8.0 mph 67% 0.00 in
04:10 25.9 °F 16.4 °F 29.90 in South 4.0 mph 8.0 mph 67% 0.00 in
04:20 25.9 °F 16.4 °F 29.91 in SSE 4.0 mph 8.0 mph 67% 0.00 in
04:25 25.8 °F 16.0 °F 29.91 in South 5.0 mph 10.0 mph 66% 0.00 in
04:30 25.9 °F 16.1 °F 29.91 in South 4.0 mph 9.0 mph 66% 0.00 in
04:35 25.8 °F 16.0 °F 29.91 in South 4.0 mph 8.0 mph 66% 0.00 in
04:40 25.8 °F 16.0 °F 29.91 in South 4.0 mph 9.0 mph 66% 0.00 in
04:55 25.8 °F 16.3 °F 29.91 in South 5.0 mph 8.0 mph 67% 0.00 in
05:00 25.9 °F 16.4 °F 29.91 in South 5.0 mph 8.0 mph 67% 0.00 in
05:05 26.0 °F 16.5 °F 29.91 in SSE 5.0 mph 8.0 mph 67% 0.00 in
05:10 26.0 °F 16.5 °F 29.91 in South 3.0 mph 7.0 mph 67% 0.00 in
05:15 25.9 °F 16.4 °F 29.91 in South 3.0 mph 7.0 mph 67% 0.00 in
05:20 25.7 °F 16.3 °F 29.90 in South 2.0 mph 5.0 mph 67% 0.00 in
05:25 25.6 °F 16.2 °F 29.90 in South 3.0 mph 6.0 mph 67% 0.00 in
05:30 25.7 °F 16.6 °F 29.90 in South 3.0 mph 6.0 mph 68% 0.00 in
05:35 25.8 °F 16.7 °F 29.90 in South 3.0 mph 7.0 mph 68% 0.00 in
05:45 25.9 °F 16.8 °F 29.89 in SSE 3.0 mph 6.0 mph 68% 0.00 in
05:50 25.9 °F 16.8 °F 29.90 in SE 4.0 mph 8.0 mph 68% 0.00 in
06:00 25.6 °F 16.2 °F 29.90 in SSE 4.0 mph 7.0 mph 67% 0.00 in
06:10 25.2 °F 15.8 °F 29.90 in South 3.0 mph 8.0 mph 67% 0.00 in
06:15 24.9 °F 15.5 °F 29.89 in South 3.0 mph 8.0 mph 67% 0.00 in
06:20 24.8 °F 15.4 °F 29.90 in South 3.0 mph 9.0 mph 67% 0.00 in
06:30 24.4 °F 15.0 °F 29.90 in South 3.0 mph 6.0 mph 67% 0.00 in
06:35 24.2 °F 14.8 °F 29.90 in South 3.0 mph 4.0 mph 67% 0.00 in
06:45 23.7 °F 14.7 °F 29.90 in South 1.0 mph 3.0 mph 68% 0.00 in
06:55 23.6 °F 14.6 °F 29.90 in Calm   3.0 mph 68% 0.00 in
07:00 23.4 °F 14.4 °F 29.90 in South 1.0 mph 3.0 mph 68% 0.00 in
07:10 23.2 °F 14.5 °F 29.89 in South 1.0 mph 2.0 mph 69% 0.00 in
07:20 22.9 °F 14.2 °F 29.91 in Calm   1.0 mph 69% 0.00 in
07:30 22.7 °F 14.1 °F 29.89 in South 1.0 mph 2.0 mph 69% 0.00 in
07:35 22.4 °F 14.1 °F 29.90 in Calm   2.0 mph 70% 0.00 in
07:40 22.5 °F 14.2 °F 29.90 in SSE 1.0 mph 4.0 mph 70% 0.00 in
07:50 22.6 °F 14.3 °F 29.89 in SE 1.0 mph 3.0 mph 70% 0.00 in
08:00 22.7 °F 14.4 °F 29.90 in SSE 1.0 mph 4.0 mph 70% 0.00 in
08:05 22.9 °F 14.6 °F 29.89 in SSE 2.0 mph 4.0 mph 70% 0.00 in
08:10 23.2 °F 14.9 °F 29.89 in SSE 2.0 mph 5.0 mph 70% 0.00 in
08:15 23.3 °F 14.6 °F 29.89 in SSE 2.0 mph 5.0 mph 69% 0.00 in
08:30 23.6 °F 14.9 °F 29.89 in SSE 2.0 mph 4.0 mph 69% 0.00 in
08:35 23.9 °F 14.9 °F 29.89 in SSE 2.0 mph 6.0 mph 68% 0.00 in
08:40 24.2 °F 15.2 °F 29.89 in South 4.0 mph 7.0 mph 68% 0.00 in
08:45 24.2 °F 14.8 °F 29.89 in South 3.0 mph 7.0 mph 67% 0.00 in
08:50 24.3 °F 14.9 °F 29.89 in South 4.0 mph 9.0 mph 67% 0.00 in
09:00 24.2 °F 14.5 °F 29.87 in SSE 4.0 mph 9.0 mph 66% 0.00 in
09:05 24.2 °F 14.5 °F 29.88 in SSE 3.0 mph 9.0 mph 66% 0.00 in
09:10 24.6 °F 14.9 °F 29.88 in South 3.0 mph 6.0 mph 66% 0.00 in
09:15 25.1 °F 15.0 °F 29.88 in South 3.0 mph 6.0 mph 65% 0.00 in
09:20 25.7 °F 15.2 °F 29.88 in SSW 3.0 mph 6.0 mph 64% 0.00 in
09:25 25.8 °F 15.3 °F 29.89 in South 2.0 mph 5.0 mph 64% 0.00 in
09:30 26.1 °F 14.8 °F 29.89 in SSW 1.0 mph 6.0 mph 62% 0.00 in
09:35 26.0 °F 14.8 °F 29.88 in SW 3.0 mph 4.0 mph 62% 0.00 in
09:40 25.7 °F 14.5 °F 29.88 in SW 2.0 mph 4.0 mph 62% 0.00 in
09:45 26.0 °F 14.8 °F 29.89 in Calm   4.0 mph 62% 0.00 in
09:55 26.7 °F 14.7 °F 29.90 in South 2.0 mph 6.0 mph 60% 0.00 in
10:00 27.0 °F 14.9 °F 29.90 in SSW 3.0 mph 7.0 mph 60% 0.00 in
10:05 27.5 °F 15.0 °F 29.89 in SSW 3.0 mph 7.0 mph 59% 0.00 in
10:10 27.7 °F 14.8 °F 29.88 in SW 3.0 mph 7.0 mph 58% 0.00 in
10:20 28.1 °F 15.2 °F 29.88 in SSW 4.0 mph 9.0 mph 58% 0.00 in
10:25 28.5 °F 15.6 °F 29.88 in South 7.0 mph 8.0 mph 58% 0.00 in
10:40 29.3 °F 16.3 °F 29.88 in South 5.0 mph 10.0 mph 58% 0.00 in
10:45 29.4 °F 16.0 °F 29.88 in SSW 6.0 mph 9.0 mph 57% 0.00 in
10:50 29.4 °F 16.4 °F 29.87 in SW 3.0 mph 7.0 mph 58% 0.00 in
10:55 29.7 °F 15.9 °F 29.87 in SSW 8.0 mph 9.0 mph 56% 0.00 in
11:00 29.9 °F 16.5 °F 29.87 in SW 3.0 mph 8.0 mph 57% 0.00 in
11:10 29.8 °F 15.6 °F 29.86 in SSW 5.0 mph 9.0 mph 55% 0.00 in
11:15 29.8 °F 15.6 °F 29.86 in SSW 5.0 mph 10.0 mph 55% 0.00 in
11:20 29.7 °F 15.1 °F 29.86 in SSW 5.0 mph 10.0 mph 54% 0.00 in
11:25 29.8 °F 15.2 °F 29.85 in SSW 5.0 mph 10.0 mph 54% 0.00 in
11:30 30.2 °F 16.0 °F 29.84 in SSW 4.0 mph 7.0 mph 55% 0.00 in
11:35 30.3 °F 15.6 °F 29.84 in South 3.0 mph 7.0 mph 54% 0.00 in
11:40 30.3 °F 15.2 °F 29.84 in South 4.0 mph 8.0 mph 53% 0.00 in
11:45 30.3 °F 15.6 °F 29.83 in South 5.0 mph 11.0 mph 54% 0.00 in
11:50 30.5 °F 15.4 °F 29.83 in South 5.0 mph 11.0 mph 53% 0.00 in
11:55 30.7 °F 15.1 °F 29.83 in SSW 2.0 mph 8.0 mph 52% 0.00 in
12:05 31.1 °F 15.5 °F 29.83 in WSW 6.0 mph 7.0 mph 52% 0.00 in
12:10 31.5 °F 15.9 °F 29.82 in SSW 3.0 mph 7.0 mph 52% 0.00 in
12:15 31.6 °F 15.5 °F 29.82 in SW 4.0 mph 9.0 mph 51% 0.00 in
12:20 31.3 °F 15.2 °F 29.82 in SW 5.0 mph 8.0 mph 51% 0.00 in
12:25 31.3 °F 15.2 °F 29.82 in SSW 4.0 mph 8.0 mph 51% 0.00 in
12:30 31.5 °F 15.4 °F 29.82 in SSW 3.0 mph 8.0 mph 51% 0.01 in
12:35 31.4 °F 15.3 °F 29.81 in South 2.0 mph 7.0 mph 51% 0.01 in
12:40 32.0 °F 15.9 °F 29.81 in SW 4.0 mph 7.0 mph 51% 0.01 in
12:45 32.3 °F 16.2 °F 29.81 in SW 3.0 mph 7.0 mph 51% 0.01 in
12:50 33.0 °F 15.4 °F 29.81 in SW 3.0 mph 8.0 mph 48% 0.01 in
12:55 32.5 °F 15.0 °F 29.81 in SSW 4.0 mph 10.0 mph 48% 0.01 in
13:00 32.6 °F 15.5 °F 29.80 in SW 4.0 mph 9.0 mph 49% 0.01 in
13:05 33.1 °F 15.5 °F 29.80 in SSW 5.0 mph 9.0 mph 48% 0.01 in
13:10 32.6 °F 15.5 °F 29.80 in SSW 4.0 mph 8.0 mph 49% 0.01 in
13:15 32.8 °F 15.2 °F 29.80 in SW 7.0 mph 7.0 mph 48% 0.01 in
13:20 32.6 °F 15.1 °F 29.79 in SW 4.0 mph 8.0 mph 48% 0.01 in
13:25 32.3 °F 15.3 °F 29.79 in WSW 4.0 mph 8.0 mph 49% 0.01 in
13:30 32.3 °F 15.3 °F 29.79 in WSW 3.0 mph 8.0 mph 49% 0.00 in
13:40 32.9 °F 15.8 °F 29.79 in SSW 2.0 mph 6.0 mph 49% 0.00 in
13:45 33.4 °F 15.3 °F 29.78 in SSW 5.0 mph 6.0 mph 47% 0.00 in
13:55 34.0 °F 14.9 °F 29.78 in SW 3.0 mph 7.0 mph 45% 0.00 in
14:00 33.9 °F 14.3 °F 29.78 in WSW 5.0 mph 7.0 mph 44% 0.01 in
14:05 34.2 °F 15.0 °F 29.78 in SW 5.0 mph 6.0 mph 45% 0.01 in
14:10 34.2 °F 14.0 °F 29.78 in WSW 4.0 mph 7.0 mph 43% 0.01 in
14:20 33.9 °F 13.7 °F 29.78 in SW 2.0 mph 7.0 mph 43% 0.01 in
14:25 34.0 °F 13.8 °F 29.78 in WSW 4.0 mph 7.0 mph 43% 0.01 in
14:30 34.1 °F 14.4 °F 29.77 in West 4.0 mph 7.0 mph 44% 0.01 in
14:35 34.1 °F 14.4 °F 29.77 in West 4.0 mph 7.0 mph 44% 0.01 in
14:40 34.1 °F 14.4 °F 29.78 in West 4.0 mph 8.0 mph 44% 0.01 in
14:45 33.9 °F 13.7 °F 29.78 in WSW 4.0 mph 8.0 mph 43% 0.01 in
14:50 33.8 °F 14.2 °F 29.78 in WSW 3.0 mph 7.0 mph 44% 0.01 in
15:00 33.6 °F 13.5 °F 29.78 in WSW 1.0 mph 7.0 mph 43% 0.00 in
15:05 33.6 °F 13.5 °F 29.77 in SW 1.0 mph 6.0 mph 43% 0.00 in
15:10 33.1 °F 15.0 °F 29.78 in SW 3.0 mph 5.0 mph 47% 0.00 in
15:15 32.7 °F 15.1 °F 29.78 in WNW 2.0 mph 7.0 mph 48% 0.00 in
15:20 32.4 °F 14.4 °F 29.78 in WSW 2.0 mph 5.0 mph 47% 0.01 in
15:25 32.2 °F 14.7 °F 29.78 in SW 5.0 mph 7.0 mph 48% 0.01 in
15:30 32.3 °F 15.7 °F 29.78 in West 2.0 mph 7.0 mph 50% 0.01 in
15:35 32.3 °F 14.3 °F 29.78 in WSW 3.0 mph 7.0 mph 47% 0.01 in
15:40 32.2 °F 15.2 °F 29.78 in West 3.0 mph 6.0 mph 49% 0.01 in
15:45 32.1 °F 15.5 °F 29.78 in WNW 2.0 mph 6.0 mph 50% 0.01 in
15:50 32.1 °F 16.0 °F 29.78 in WNW 3.0 mph 5.0 mph 51% 0.01 in
15:55 32.1 °F 16.4 °F 29.78 in West 2.0 mph 5.0 mph 52% 0.01 in
16:00 32.1 °F 16.9 °F 29.78 in WNW 4.0 mph 5.0 mph 53% 0.01 in
16:05 32.0 °F 17.2 °F 29.78 in WNW 2.0 mph 5.0 mph 54% 0.01 in
16:15 31.4 °F 16.7 °F 29.78 in Calm   3.0 mph 54% 0.01 in
16:25 31.2 °F 16.9 °F 29.78 in WNW 1.0 mph 4.0 mph 55% 0.00 in
16:30 30.9 °F 17.0 °F 29.78 in WNW 1.0 mph 3.0 mph 56% 0.00 in
16:35 30.8 °F 16.9 °F 29.79 in WNW 1.0 mph 3.0 mph 56% 0.00 in
16:40 30.5 °F 17.1 °F 29.79 in Calm   2.0 mph 57% 0.00 in
16:45 30.4 °F 17.0 °F 29.79 in Calm   3.0 mph 57% 0.00 in
16:50 29.9 °F 17.3 °F 29.79 in Calm   3.0 mph 59% 0.00 in
16:55 29.7 °F 17.5 °F 29.79 in Calm     60% 0.00 in
17:00 29.6 °F 17.4 °F 29.79 in Calm     60% 0.00 in
17:05 29.5 °F 17.3 °F 29.79 in Calm     60% 0.00 in
17:10 29.4 °F 17.6 °F 29.79 in Calm     61% 0.00 in
17:15 29.4 °F 18.3 °F 29.79 in Calm     63% 0.00 in
17:20 29.5 °F 18.4 °F 29.80 in Calm     63% 0.00 in
17:25 29.4 °F 18.7 °F 29.80 in Calm     64% 0.00 in
17:30 29.4 °F 18.7 °F 29.79 in Calm     64% 0.00 in
17:35 29.4 °F 18.7 °F 29.79 in Calm     64% 0.00 in
17:45 29.7 °F 18.6 °F 29.79 in Calm     63% 0.00 in
17:50 29.6 °F 18.9 °F 29.79 in Calm     64% 0.00 in
18:00 29.8 °F 18.7 °F 29.79 in Calm     63% 0.00 in
18:10 29.6 °F 18.9 °F 29.79 in Calm     64% 0.00 in
18:15 29.6 °F 18.9 °F 29.79 in Calm     64% 0.00 in
18:20 29.7 °F 19.0 °F 29.79 in Calm     64% 0.00 in
18:30 29.6 °F 19.3 °F 29.79 in Calm     65% 0.00 in
18:35 29.6 °F 19.3 °F 29.80 in Calm     65% 0.00 in
18:40 29.7 °F 19.4 °F 29.80 in Calm     65% 0.00 in
18:45 29.8 °F 19.5 °F 29.80 in Calm     65% 0.00 in
18:50 29.7 °F 19.0 °F 29.80 in Calm     64% 0.00 in
19:00 29.5 °F 19.5 °F 29.80 in Calm     66% 0.00 in
19:05 29.6 °F 20.0 °F 29.80 in Calm     67% 0.00 in
19:10 29.6 °F 20.0 °F 29.80 in Calm     67% 0.00 in
19:15 29.4 °F 20.1 °F 29.80 in Calm     68% 0.00 in
19:25 29.4 °F 20.1 °F 29.80 in Calm     68% 0.00 in
19:30 29.3 °F 20.0 °F 29.80 in Calm     68% 0.00 in
19:35 29.4 °F 20.1 °F 29.80 in Calm     68% 0.00 in
19:40 29.6 °F 20.7 °F 29.80 in WNW 2.0 mph 5.0 mph 69% 0.00 in
19:45 30.2 °F 20.9 °F 29.80 in West 1.0 mph 6.0 mph 68% 0.00 in
19:50 30.5 °F 21.2 °F 29.80 in WNW 2.0 mph 7.0 mph 68% 0.00 in
19:55 30.7 °F 21.4 °F 29.80 in WNW 4.0 mph 6.0 mph 68% 0.00 in
20:00 30.7 °F 21.4 °F 29.80 in West 4.0 mph 7.0 mph 68% 0.00 in
20:05 30.6 °F 21.6 °F 29.80 in West 4.0 mph 7.0 mph 69% 0.00 in
20:10 30.6 °F 21.6 °F 29.80 in WNW 3.0 mph 7.0 mph 69% 0.00 in
20:15 30.5 °F 21.9 °F 29.80 in West 2.0 mph 7.0 mph 70% 0.00 in
20:25 30.4 °F 22.1 °F 29.80 in West 3.0 mph 6.0 mph 71% 0.00 in
20:30 30.4 °F 22.1 °F 29.80 in WNW 1.0 mph 4.0 mph 71% 0.00 in
20:35 30.3 °F 22.4 °F 29.80 in West 2.0 mph 6.0 mph 72% 0.00 in
20:40 30.3 °F 22.4 °F 29.80 in WNW 3.0 mph 11.0 mph 72% 0.00 in
20:45 30.3 °F 22.7 °F 29.80 in West 5.0 mph 7.0 mph 73% 0.00 in
20:50 30.3 °F 22.7 °F 29.80 in West 5.0 mph 8.0 mph 73% 0.00 in
20:55 30.3 °F 23.0 °F 29.80 in WNW 5.0 mph 8.0 mph 74% 0.00 in
21:00 30.1 °F 22.8 °F 29.80 in WNW 4.0 mph 8.0 mph 74% 0.00 in
21:10 29.9 °F 22.9 °F 29.80 in WNW 4.0 mph 6.0 mph 75% 0.00 in
21:15 29.9 °F 22.9 °F 29.80 in West 3.0 mph 8.0 mph 75% 0.00 in
21:20 29.7 °F 23.1 °F 29.80 in West 3.0 mph 8.0 mph 76% 0.00 in
21:35 29.5 °F 22.9 °F 29.80 in WNW 4.0 mph 6.0 mph 76% 0.00 in
21:40 29.5 °F 22.9 °F 29.80 in WNW 1.0 mph 5.0 mph 76% 0.00 in
21:45 29.5 °F 23.2 °F 29.79 in WNW 2.0 mph 5.0 mph 77% 0.00 in
21:55 29.3 °F 23.0 °F 29.79 in WNW 1.0 mph 4.0 mph 77% 0.00 in
22:00 29.1 °F 23.1 °F 29.79 in WNW 1.0 mph 4.0 mph 78% 0.00 in
22:05 28.9 °F 22.9 °F 29.79 in WNW 1.0 mph 5.0 mph 78% 0.00 in
22:20 28.7 °F 23.0 °F 29.79 in WNW 2.0 mph 5.0 mph 79% 0.00 in
22:25 28.8 °F 23.1 °F 29.79 in West 2.0 mph 4.0 mph 79% 0.00 in
22:30 28.9 °F 23.2 °F 29.79 in West 2.0 mph 4.0 mph 79% 0.00 in
22:35 29.0 °F 23.3 °F 29.79 in WNW 5.0 mph 8.0 mph 79% 0.00 in
22:45 29.1 °F 23.4 °F 29.80 in WNW 1.0 mph 6.0 mph 79% 0.00 in
22:50 29.1 °F 23.4 °F 29.80 in West 3.0 mph 6.0 mph 79% 0.00 in
22:55 29.2 °F 23.5 °F 29.80 in West 2.0 mph 5.0 mph 79% 0.00 in
23:05 29.2 °F 23.5 °F 29.80 in West 1.0 mph 5.0 mph 79% 0.00 in
23:10 29.2 °F 23.5 °F 29.80 in West 2.0 mph 5.0 mph 79% 0.00 in
23:15 29.2 °F 23.5 °F 29.80 in WSW 2.0 mph 6.0 mph 79% 0.00 in
23:20 29.3 °F 23.6 °F 29.80 in WSW 3.0 mph 4.0 mph 79% 0.00 in
23:25 29.3 °F 23.6 °F 29.80 in WSW 2.0 mph 5.0 mph 79% 0.00 in
23:30 29.3 °F 23.6 °F 29.80 in WSW 5.0 mph 6.0 mph 79% 0.00 in
23:40 29.3 °F 23.6 °F 29.79 in SSW 1.0 mph 6.0 mph 79% 0.00 in
23:45 29.3 °F 23.6 °F 29.79 in West 3.0 mph 9.0 mph 79% 0.00 in
23:50 29.2 °F 23.5 °F 29.79 in West 3.0 mph 5.0 mph 79% 0.00 in
23:55 29.2 °F 23.5 °F 29.79 in WSW 3.0 mph 6.0 mph 79% 0.00 in
Buffalo, New York, USA
Compliments of Weather Underground - 2 mb